Time;durP1;ratioP1;P1;durP2;ratioP2;P2;SDS_P1;SDS_P2;PMS_P1;PMS_P2;Temp;Humidity;BMP_temperature;BMP_pressure;BME280_temperature;BME280_humidity;BME280_pressure;Samples;Min_cycle;Max_cycle;Signal;HPM_P1;HPM_P2
2021/12/07 00:01:22;;;;;;;0.90;0.90;;;;;;;;;;1863565;76;26273;-29
2021/12/07 00:03:50;;;;;;;1.85;1.00;;;;;;;;;;1851011;76;26738;-28
2021/12/07 00:06:17;;;;;;;0.90;0.90;;;;;;;;;;1861149;76;26310;-29
2021/12/07 00:08:45;;;;;;;1.10;1.10;;;;;;;;;;1856617;76;26638;-29
2021/12/07 00:11:13;;;;;;;0.90;0.90;;;;;;;;;;1855083;76;26248;-29
2021/12/07 00:13:42;;;;;;;0.85;0.85;;;;;;;;;;1860671;76;26342;-28
2021/12/07 00:16:10;;;;;;;0.90;0.90;;;;;;;;;;1862603;76;26325;-29
2021/12/07 00:18:38;;;;;;;0.90;0.90;;;;;;;;;;1860866;76;26275;-29
2021/12/07 00:21:07;;;;;;;0.80;0.80;;;;;;;;;;1861279;76;26772;-30
2021/12/07 00:23:34;;;;;;;1.00;1.00;;;;;;;;;;1867697;76;26724;-30
2021/12/07 00:26:02;;;;;;;0.90;0.90;;;;;;;;;;1855336;76;26239;-29
2021/12/07 00:28:29;;;;;;;0.90;0.90;;;;;;;;;;1864387;76;26253;-29
2021/12/07 00:31:08;;;;;;;0.78;0.78;;;;;;;;;;1869995;75;26279;-28
2021/12/07 00:35:55;;;;;;;1.12;1.00;;;;;;;;;;1855784;75;26690;-29
2021/12/07 00:38:24;;;;;;;1.05;1.00;;;;;;;;;;1860469;75;26245;-30
2021/12/07 00:40:52;;;;;;;0.98;0.98;;;;;;;;;;1868565;75;26855;-29
2021/12/07 00:43:20;;;;;;;1.00;1.00;;;;;;;;;;1867301;75;26267;-30
2021/12/07 00:45:49;;;;;;;0.80;0.80;;;;;;;;;;1869158;76;26779;-29
2021/12/07 00:48:17;;;;;;;0.88;0.88;;;;;;;;;;1877350;75;26263;-29
2021/12/07 00:50:46;;;;;;;0.95;0.90;;;;;;;;;;1859227;76;26399;-29
2021/12/07 00:53:14;;;;;;;0.72;0.72;;;;;;;;;;1873746;75;26315;-29
2021/12/07 00:55:42;;;;;;;0.80;0.80;;;;;;;;;;1859783;76;26838;-29
2021/12/07 00:58:18;;;;;;;0.85;0.85;;;;;;;;;;1861524;75;26875;-29
2021/12/07 01:00:43;;;;;;;0.80;0.80;;;;;;;;;;1870403;76;26326;-30
2021/12/07 01:03:10;;;;;;;0.82;0.82;;;;;;;;;;1859871;75;26366;-30
2021/12/07 01:05:40;;;;;;;0.80;0.80;;;;;;;;;;1862010;76;26225;-29
2021/12/07 01:27:03;;;;;;;0.80;0.80;;;;;;;;;;1852521;76;26363;-30
2021/12/07 01:29:31;;;;;;;0.88;0.88;;;;;;;;;;1844853;76;26854;-29
2021/12/07 01:37:56;;;;;;;0.70;0.70;;;;;;;;;;1846409;76;26282;-30
2021/12/07 01:45:53;;;;;;;0.80;0.80;;;;;;;;;;1761233;79;26251;-30
2021/12/07 01:49:37;;;;;;;1.37;0.90;;;;;;;;;;1824953;76;26797;-30
2021/12/07 01:50:50;;;;;;;0.75;0.75;;;;;;;;;;1854659;76;26302;-30
2021/12/07 01:57:50;;;;;;;0.75;0.75;;;;;;;;;;1862241;76;26623;-29
2021/12/07 02:01:03;;;;;;;0.85;0.85;;;;;;;;;;1861711;76;26312;-29
2021/12/07 02:03:31;;;;;;;0.80;0.80;;;;;;;;;;1843786;76;27369;-30
2021/12/07 02:05:59;;;;;;;0.80;0.80;;;;;;;;;;1854871;76;26277;-29
2021/12/07 02:08:26;;;;;;;0.80;0.80;;;;;;;;;;1844810;76;26702;-29
2021/12/07 02:10:58;;;;;;;0.80;0.80;;;;;;;;;;1839271;76;26245;-30
2021/12/07 02:15:51;;;;;;;0.82;0.82;;;;;;;;;;1806891;76;26249;-29
2021/12/07 02:18:19;;;;;;;0.78;0.78;;;;;;;;;;1839365;76;26350;-29
2021/12/07 02:20:47;;;;;;;0.70;0.70;;;;;;;;;;1856740;77;26699;-30
2021/12/07 02:23:15;;;;;;;0.70;0.70;;;;;;;;;;1861976;77;26745;-29
2021/12/07 02:25:42;;;;;;;0.70;0.70;;;;;;;;;;1846303;76;26343;-30
2021/12/07 02:28:15;;;;;;;0.72;0.72;;;;;;;;;;1854910;76;26289;-30
2021/12/07 02:30:43;;;;;;;0.90;0.90;;;;;;;;;;1858081;76;26277;-31
2021/12/07 02:33:11;;;;;;;0.80;0.80;;;;;;;;;;1860114;76;26817;-30
2021/12/07 02:35:38;;;;;;;0.80;0.80;;;;;;;;;;1843274;77;26264;-30
2021/12/07 02:38:06;;;;;;;0.80;0.80;;;;;;;;;;1856600;76;26283;-30
2021/12/07 02:40:33;;;;;;;0.70;0.70;;;;;;;;;;1846631;77;26263;-30
2021/12/07 02:43:01;;;;;;;0.70;0.70;;;;;;;;;;1854361;76;26329;-30
2021/12/07 02:45:28;;;;;;;1.37;0.80;;;;;;;;;;1857996;76;26329;-30
2021/12/07 02:47:56;;;;;;;0.72;0.72;;;;;;;;;;1859852;77;26253;-30
2021/12/07 02:50:23;;;;;;;0.90;0.90;;;;;;;;;;1862033;76;26299;-31
2021/12/07 02:52:51;;;;;;;0.70;0.70;;;;;;;;;;1853691;77;26355;-30
2021/12/07 02:55:18;;;;;;;0.70;0.70;;;;;;;;;;1836726;76;26273;-30
2021/12/07 02:57:47;;;;;;;0.78;0.78;;;;;;;;;;1841426;77;26289;-30
2021/12/07 03:00:20;;;;;;;0.80;0.80;;;;;;;;;;1854879;76;26773;-30
2021/12/07 03:02:56;;;;;;;0.80;0.80;;;;;;;;;;1843906;76;26327;-30
2021/12/07 03:08:40;;;;;;;0.80;0.80;;;;;;;;;;1849138;76;26234;-30
2021/12/07 03:27:11;;;;;;;0.82;0.82;;;;;;;;;;1845887;75;26843;-29
2021/12/07 03:29:38;;;;;;;0.70;0.70;;;;;;;;;;1864903;76;26265;-29
2021/12/07 03:32:06;;;;;;;0.72;0.72;;;;;;;;;;1867421;76;26225;-29
2021/12/07 03:34:34;;;;;;;0.78;0.78;;;;;;;;;;1862719;75;26521;-29
2021/12/07 03:37:01;;;;;;;0.72;0.72;;;;;;;;;;1869254;76;25333;-29
2021/12/07 03:39:28;;;;;;;0.70;0.70;;;;;;;;;;1865809;76;26202;-29
2021/12/07 03:41:56;;;;;;;0.82;0.82;;;;;;;;;;1871580;76;26554;-29
2021/12/07 03:44:23;;;;;;;0.82;0.82;;;;;;;;;;1868724;76;26315;-29
2021/12/07 03:46:50;;;;;;;0.90;0.90;;;;;;;;;;1871134;76;26735;-28
2021/12/07 03:49:18;;;;;;;0.80;0.80;;;;;;;;;;1874861;76;26261;-29
2021/12/07 03:51:45;;;;;;;0.75;0.75;;;;;;;;;;1867172;76;26374;-29
2021/12/07 03:54:12;;;;;;;0.70;0.70;;;;;;;;;;1871488;75;26269;-29
2021/12/07 03:56:40;;;;;;;0.75;0.75;;;;;;;;;;1858323;76;26202;-29
2021/12/07 03:59:07;;;;;;;0.85;0.85;;;;;;;;;;1874131;76;26253;-29
2021/12/07 04:01:34;;;;;;;0.95;0.95;;;;;;;;;;1855865;76;26677;-29
2021/12/07 04:04:03;;;;;;;0.80;0.80;;;;;;;;;;1869021;75;26300;-29
2021/12/07 04:06:31;;;;;;;0.90;0.90;;;;;;;;;;1871135;75;26327;-29
2021/12/07 04:08:58;;;;;;;1.00;1.00;;;;;;;;;;1869700;75;26688;-29
2021/12/07 04:11:26;;;;;;;1.05;0.80;;;;;;;;;;1874087;76;26285;-29
2021/12/07 04:13:53;;;;;;;0.70;0.70;;;;;;;;;;1868143;76;26265;-29
2021/12/07 04:16:20;;;;;;;0.90;0.90;;;;;;;;;;1870035;76;26201;-28
2021/12/07 04:18:48;;;;;;;0.78;0.78;;;;;;;;;;1850577;75;26400;-29
2021/12/07 04:21:15;;;;;;;0.80;0.80;;;;;;;;;;1858368;75;27034;-29
2021/12/07 04:23:42;;;;;;;1.47;0.88;;;;;;;;;;1858601;76;26329;-29
2021/12/07 04:26:11;;;;;;;0.88;0.88;;;;;;;;;;1862039;76;26274;-29
2021/12/07 04:28:40;;;;;;;0.90;0.90;;;;;;;;;;1841986;76;26324;-29
2021/12/07 04:31:07;;;;;;;0.80;0.80;;;;;;;;;;1847446;77;26762;-29
2021/12/07 04:33:35;;;;;;;1.15;0.95;;;;;;;;;;1838142;77;26346;-30
2021/12/07 04:36:03;;;;;;;0.80;0.80;;;;;;;;;;1835770;77;26303;-28
2021/12/07 04:38:31;;;;;;;0.80;0.80;;;;;;;;;;1836924;77;26343;-29
2021/12/07 04:40:58;;;;;;;1.15;0.85;;;;;;;;;;1841868;77;26247;-29
2021/12/07 04:43:26;;;;;;;0.90;0.90;;;;;;;;;;1850254;77;26273;-29
2021/12/07 04:46:10;;;;;;;3.20;0.90;;;;;;;;;;1844844;77;27214;-29
2021/12/07 04:59:16;;;;;;;3.40;1.10;;;;;;;;;;1840872;77;26833;-30
2021/12/07 05:01:44;;;;;;;6.90;1.00;;;;;;;;;;1836546;77;26222;-29
2021/12/07 05:04:17;;;;;;;3.98;1.15;;;;;;;;;;1836508;76;26320;-30
2021/12/07 05:06:46;;;;;;;9.33;1.60;;;;;;;;;;1846293;77;26195;-30
2021/12/07 05:14:30;;;;;;;4.65;1.05;;;;;;;;;;1839235;77;26270;-30
2021/12/07 05:38:48;;;;;;;4.05;1.00;;;;;;;;;;1838847;76;26320;-29
2021/12/07 05:41:15;;;;;;;2.02;1.00;;;;;;;;;;1841519;77;26735;-30
2021/12/07 05:43:43;;;;;;;4.35;0.90;;;;;;;;;;1830554;77;26331;-30
2021/12/07 05:46:10;;;;;;;3.65;0.93;;;;;;;;;;1834488;76;26804;-30
2021/12/07 05:48:37;;;;;;;2.67;1.02;;;;;;;;;;1837303;76;26262;-30
2021/12/07 05:51:05;;;;;;;2.37;1.20;;;;;;;;;;1834693;76;26882;-31
2021/12/07 05:53:34;;;;;;;1.70;0.90;;;;;;;;;;1837083;76;26259;-29
2021/12/07 05:56:02;;;;;;;1.10;0.88;;;;;;;;;;1846771;77;26941;-30
2021/12/07 05:58:29;;;;;;;3.90;1.00;;;;;;;;;;1850991;77;26326;-30
2021/12/07 06:00:58;;;;;;;1.25;1.00;;;;;;;;;;1849278;76;26716;-29
2021/12/07 06:03:26;;;;;;;3.02;1.10;;;;;;;;;;1835527;76;26725;-29
2021/12/07 06:05:54;;;;;;;1.62;1.00;;;;;;;;;;1853607;77;26261;-29
2021/12/07 06:08:22;;;;;;;1.02;0.90;;;;;;;;;;1841966;77;26285;-30
2021/12/07 06:10:49;;;;;;;0.98;0.98;;;;;;;;;;1851428;77;26251;-30
2021/12/07 06:13:16;;;;;;;1.87;0.90;;;;;;;;;;1850225;77;26716;-30
2021/12/07 06:15:45;;;;;;;1.95;1.00;;;;;;;;;;1855481;76;26352;-29
2021/12/07 06:18:13;;;;;;;1.17;0.82;;;;;;;;;;1850074;77;26267;-30
2021/12/07 06:20:41;;;;;;;0.82;0.80;;;;;;;;;;1861350;77;26697;-29
2021/12/07 06:23:10;;;;;;;1.00;1.00;;;;;;;;;;1851489;77;26720;-30
2021/12/07 06:25:37;;;;;;;1.70;1.00;;;;;;;;;;1843422;77;25709;-30
2021/12/07 06:28:05;;;;;;;0.90;0.90;;;;;;;;;;1850986;76;26273;-30
2021/12/07 06:30:32;;;;;;;2.15;1.07;;;;;;;;;;1863843;76;26767;-29
2021/12/07 06:33:00;;;;;;;1.30;0.88;;;;;;;;;;1857237;76;26272;-29
2021/12/07 06:35:27;;;;;;;0.98;0.98;;;;;;;;;;1857604;76;26270;-30
2021/12/07 06:37:54;;;;;;;1.02;0.85;;;;;;;;;;1844705;76;26747;-31
2021/12/07 06:40:22;;;;;;;0.90;0.90;;;;;;;;;;1862017;76;26265;-29
2021/12/07 06:42:49;;;;;;;0.98;0.93;;;;;;;;;;1857824;76;26296;-29
2021/12/07 06:45:17;;;;;;;2.47;1.00;;;;;;;;;;1857958;76;26251;-30
2021/12/07 06:47:44;;;;;;;0.90;0.90;;;;;;;;;;1845183;76;26300;-30
2021/12/07 06:50:12;;;;;;;1.20;0.85;;;;;;;;;;1852691;76;26271;-29
2021/12/07 06:52:39;;;;;;;1.00;1.00;;;;;;;;;;1847776;76;26737;-30
2021/12/07 06:55:07;;;;;;;0.98;0.98;;;;;;;;;;1849110;76;26309;-29
2021/12/07 06:57:35;;;;;;;1.00;1.00;;;;;;;;;;1857322;76;26283;-30
2021/12/07 07:00:04;;;;;;;1.22;1.00;;;;;;;;;;1846241;76;26269;-30
2021/12/07 07:02:31;;;;;;;1.02;0.90;;;;;;;;;;1851554;76;26202;-30
2021/12/07 07:04:59;;;;;;;1.30;1.20;;;;;;;;;;1851592;76;26290;-30
2021/12/07 07:07:26;;;;;;;1.00;1.00;;;;;;;;;;1862306;76;26261;-29
2021/12/07 07:09:54;;;;;;;1.12;0.98;;;;;;;;;;1853795;76;26653;-30
2021/12/07 07:12:21;;;;;;;1.00;1.00;;;;;;;;;;1855712;76;26292;-29
2021/12/07 07:14:48;;;;;;;1.45;1.10;;;;;;;;;;1852667;76;26656;-29
2021/12/07 07:17:16;;;;;;;0.95;0.95;;;;;;;;;;1857841;76;26267;-29
2021/12/07 07:19:43;;;;;;;2.27;1.12;;;;;;;;;;1859399;76;26202;-30
2021/12/07 07:22:11;;;;;;;2.15;1.00;;;;;;;;;;1864434;76;26246;-30
2021/12/07 07:24:38;;;;;;;1.07;1.07;;;;;;;;;;1860682;76;26805;-29
2021/12/07 07:27:06;;;;;;;1.12;1.12;;;;;;;;;;1848782;76;26342;-29
2021/12/07 07:29:33;;;;;;;1.00;1.00;;;;;;;;;;1862563;76;26791;-30
2021/12/07 07:32:01;;;;;;;1.00;1.00;;;;;;;;;;1843033;77;26734;-29
2021/12/07 07:34:28;;;;;;;1.15;1.15;;;;;;;;;;1840948;77;26346;-29
2021/12/07 07:36:56;;;;;;;1.00;1.00;;;;;;;;;;1841468;77;26283;-30
2021/12/07 07:39:23;;;;;;;1.00;1.00;;;;;;;;;;1850808;77;26315;-29
2021/12/07 07:41:51;;;;;;;1.10;1.10;;;;;;;;;;1836918;76;26301;-29
2021/12/07 07:44:18;;;;;;;1.20;1.20;;;;;;;;;;1839344;77;26305;-30
2021/12/07 07:46:46;;;;;;;1.10;1.10;;;;;;;;;;1843935;77;26298;-30
2021/12/07 07:49:13;;;;;;;1.10;1.10;;;;;;;;;;1843948;77;26338;-30
2021/12/07 07:51:40;;;;;;;1.00;1.00;;;;;;;;;;1842009;77;26682;-30
2021/12/07 07:54:08;;;;;;;1.02;1.02;;;;;;;;;;1845801;77;26338;-30
2021/12/07 07:56:36;;;;;;;1.20;1.20;;;;;;;;;;1845049;77;26328;-30
2021/12/07 07:59:04;;;;;;;1.12;1.12;;;;;;;;;;1845887;77;26282;-30
2021/12/07 08:01:31;;;;;;;1.30;1.30;;;;;;;;;;1835569;77;26275;-36
2021/12/07 08:04:00;;;;;;;1.22;1.22;;;;;;;;;;1842072;76;26322;-34
2021/12/07 08:06:28;;;;;;;1.30;1.30;;;;;;;;;;1840143;76;26305;-34
2021/12/07 08:08:56;;;;;;;1.40;1.40;;;;;;;;;;1841313;77;26293;-35
2021/12/07 08:11:24;;;;;;;1.30;1.30;;;;;;;;;;1840838;77;26271;-36
2021/12/07 08:13:52;;;;;;;1.10;1.10;;;;;;;;;;1837067;77;26784;-33
2021/12/07 08:16:19;;;;;;;1.40;1.30;;;;;;;;;;1827471;77;28316;-36
2021/12/07 08:18:48;;;;;;;1.37;1.37;;;;;;;;;;1831326;77;28892;-36
2021/12/07 08:21:16;;;;;;;1.10;1.10;;;;;;;;;;1851987;76;26352;-34
2021/12/07 08:23:44;;;;;;;1.10;1.10;;;;;;;;;;1843992;76;27442;-33
2021/12/07 08:26:12;;;;;;;1.17;1.17;;;;;;;;;;1842684;76;26967;-33
2021/12/07 08:28:40;;;;;;;1.10;1.10;;;;;;;;;;1843811;76;26323;-34
2021/12/07 08:31:07;;;;;;;1.00;1.00;;;;;;;;;;1854991;76;26662;-31
2021/12/07 08:33:35;;;;;;;1.10;1.10;;;;;;;;;;1855575;76;26245;-34
2021/12/07 08:36:03;;;;;;;1.02;1.02;;;;;;;;;;1843909;76;26838;-31
2021/12/07 08:38:31;;;;;;;1.10;1.10;;;;;;;;;;1856663;77;26249;-31
2021/12/07 08:40:59;;;;;;;1.40;1.10;;;;;;;;;;1855711;77;26260;-31
2021/12/07 08:43:27;;;;;;;1.20;1.20;;;;;;;;;;1851526;77;26811;-31
2021/12/07 08:45:55;;;;;;;1.02;1.02;;;;;;;;;;1840743;77;26293;-34
2021/12/07 08:48:23;;;;;;;1.20;1.20;;;;;;;;;;1852809;77;26272;-34
2021/12/07 08:50:51;;;;;;;0.93;0.93;;;;;;;;;;1843140;77;26272;-33
2021/12/07 08:53:20;;;;;;;1.10;1.10;;;;;;;;;;1841171;77;26263;-31
2021/12/07 09:01:21;;;;;;;1.00;1.00;;;;;;;;;;1841465;76;26303;-36
2021/12/07 09:03:49;;;;;;;1.07;1.07;;;;;;;;;;1846391;76;26748;-32
2021/12/07 09:06:17;;;;;;;0.98;0.98;;;;;;;;;;1843768;76;25994;-37
2021/12/07 09:08:44;;;;;;;0.90;0.90;;;;;;;;;;1845389;77;26333;-32
2021/12/07 09:11:12;;;;;;;0.95;0.95;;;;;;;;;;1837176;77;26314;-32
2021/12/07 09:13:40;;;;;;;1.00;1.00;;;;;;;;;;1839707;77;26357;-29
2021/12/07 09:16:09;;;;;;;2.12;0.93;;;;;;;;;;1849158;77;26209;-30
2021/12/07 09:18:37;;;;;;;0.90;0.90;;;;;;;;;;1840809;77;26112;-35
2021/12/07 09:21:05;;;;;;;1.47;0.90;;;;;;;;;;1837459;77;26331;-35
2021/12/07 09:23:33;;;;;;;1.00;1.00;;;;;;;;;;1835134;77;26734;-31
2021/12/07 09:26:00;;;;;;;1.00;1.00;;;;;;;;;;1838130;77;26268;-32
2021/12/07 09:28:27;;;;;;;1.50;0.88;;;;;;;;;;1835528;77;26288;-32
2021/12/07 09:30:55;;;;;;;0.85;0.85;;;;;;;;;;1835444;77;26400;-36
2021/12/07 09:33:24;;;;;;;0.98;0.98;;;;;;;;;;1834611;77;26382;-32
2021/12/07 09:35:52;;;;;;;0.88;0.88;;;;;;;;;;1846167;77;26219;-34
2021/12/07 09:38:19;;;;;;;0.90;0.90;;;;;;;;;;1845262;76;26286;-32
2021/12/07 09:40:47;;;;;;;1.00;1.00;;;;;;;;;;1844047;77;26339;-33
2021/12/07 09:43:14;;;;;;;1.57;0.90;;;;;;;;;;1856003;76;26269;-31
2021/12/07 09:45:43;;;;;;;0.72;0.72;;;;;;;;;;1840834;77;26733;-33
2021/12/07 09:48:11;;;;;;;1.00;1.00;;;;;;;;;;1834499;77;26280;-31
2021/12/07 09:50:39;;;;;;;2.08;0.90;;;;;;;;;;1837614;76;26254;-45
2021/12/07 09:53:08;;;;;;;0.93;0.93;;;;;;;;;;1839630;76;26732;-31
2021/12/07 09:55:37;;;;;;;0.98;0.98;;;;;;;;;;1845596;76;26330;-33
2021/12/07 09:58:05;;;;;;;1.00;1.00;;;;;;;;;;1845539;77;26266;-31
2021/12/07 10:00:33;;;;;;;1.00;1.00;;;;;;;;;;1854786;77;27389;-30
2021/12/07 10:03:00;;;;;;;1.10;1.10;;;;;;;;;;1834460;76;26274;-31
2021/12/07 10:05:30;;;;;;;0.98;0.98;;;;;;;;;;1853319;76;26808;-31
2021/12/07 10:07:59;;;;;;;0.85;0.85;;;;;;;;;;1837556;77;26293;-31
2021/12/07 10:10:28;;;;;;;1.00;1.00;;;;;;;;;;1841903;76;26280;-33
2021/12/07 10:12:56;;;;;;;1.22;0.90;;;;;;;;;;1840278;76;26431;-32
2021/12/07 10:15:23;;;;;;;0.98;0.98;;;;;;;;;;1837826;76;26271;-34
2021/12/07 10:18:07;;;;;;;0.90;0.90;;;;;;;;;;1833946;76;26680;-33
2021/12/07 10:20:41;;;;;;;1.67;0.90;;;;;;;;;;1851313;76;26291;-36
2021/12/07 10:23:21;;;;;;;1.00;1.00;;;;;;;;;;1839742;76;26343;-32
2021/12/07 10:25:55;;;;;;;0.90;0.90;;;;;;;;;;1825662;76;29381;-34
2021/12/07 10:28:27;;;;;;;0.93;0.93;;;;;;;;;;1845975;76;26294;-32
2021/12/07 10:30:55;;;;;;;0.85;0.85;;;;;;;;;;1839763;76;26408;-34
2021/12/07 10:33:30;;;;;;;0.93;0.93;;;;;;;;;;1845887;76;26275;-33
2021/12/07 10:36:11;;;;;;;0.95;0.95;;;;;;;;;;1790578;76;26725;-33
2021/12/07 10:38:39;;;;;;;0.98;0.98;;;;;;;;;;1834357;76;26275;-32
2021/12/07 10:41:08;;;;;;;0.98;0.98;;;;;;;;;;1841265;76;26859;-34
2021/12/07 10:43:49;;;;;;;0.90;0.90;;;;;;;;;;1840594;76;26348;-33
2021/12/07 10:46:27;;;;;;;1.05;1.05;;;;;;;;;;1833053;76;26304;-35
2021/12/07 10:48:56;;;;;;;0.80;0.80;;;;;;;;;;1838806;76;26282;-32
2021/12/07 10:51:23;;;;;;;0.98;0.98;;;;;;;;;;1836767;76;26287;-28
2021/12/07 10:53:54;;;;;;;1.10;1.10;;;;;;;;;;1831736;76;26680;-31
2021/12/07 10:56:31;;;;;;;1.22;1.00;;;;;;;;;;1836328;76;26333;-30
2021/12/07 10:59:03;;;;;;;1.03;1.03;;;;;;;;;;1834272;76;27903;-33
2021/12/07 11:01:37;;;;;;;1.00;1.00;;;;;;;;;;1823462;76;28255;-33
2021/12/07 11:04:21;;;;;;;1.30;1.27;;;;;;;;;;1818213;76;28380;-31
2021/12/07 11:07:07;;;;;;;1.00;1.00;;;;;;;;;;1839519;76;26329;-35
2021/12/07 11:09:38;;;;;;;1.10;1.10;;;;;;;;;;1839678;76;26361;-35
2021/12/07 11:12:07;;;;;;;1.02;1.02;;;;;;;;;;1840822;76;26322;-36
2021/12/07 11:14:47;;;;;;;1.30;1.20;;;;;;;;;;1847714;76;26341;-34
2021/12/07 11:17:11;;;;;;;1.12;1.12;;;;;;;;;;1837682;76;26366;-32
2021/12/07 11:19:38;;;;;;;1.12;1.02;;;;;;;;;;1848421;76;26249;-37
2021/12/07 11:22:06;;;;;;;0.90;0.90;;;;;;;;;;1838317;76;26329;-33
2021/12/07 11:24:38;;;;;;;1.00;1.00;;;;;;;;;;1842336;76;26764;-34
2021/12/07 11:30:02;;;;;;;1.30;1.20;;;;;;;;;;1844616;76;28321;-33
2021/12/07 11:32:29;;;;;;;1.30;1.30;;;;;;;;;;1840460;76;26289;-32
2021/12/07 11:34:58;;;;;;;1.15;1.15;;;;;;;;;;1844402;77;26652;-33
2021/12/07 11:37:27;;;;;;;1.20;1.20;;;;;;;;;;1845226;77;26253;-34
2021/12/07 11:39:56;;;;;;;1.00;1.00;;;;;;;;;;1852423;77;26378;-38
2021/12/07 11:42:25;;;;;;;1.55;1.00;;;;;;;;;;1847870;76;26293;-34
2021/12/07 11:44:54;;;;;;;1.10;1.10;;;;;;;;;;1847871;77;26731;-33
2021/12/07 11:47:29;;;;;;;1.10;1.10;;;;;;;;;;1853588;76;26866;-31
2021/12/07 11:49:57;;;;;;;1.00;1.00;;;;;;;;;;1852026;76;26642;-33
2021/12/07 11:52:25;;;;;;;1.10;1.10;;;;;;;;;;1855297;76;26300;-31
2021/12/07 11:54:52;;;;;;;1.10;1.10;;;;;;;;;;1837842;76;26407;-29
2021/12/07 11:57:21;;;;;;;0.98;0.98;;;;;;;;;;1847119;77;26222;-32
2021/12/07 11:59:50;;;;;;;1.20;1.10;;;;;;;;;;1845804;77;27058;-31
2021/12/07 12:02:22;;;;;;;1.00;1.00;;;;;;;;;;1845359;76;26837;-31
2021/12/07 12:04:47;;;;;;;1.00;1.00;;;;;;;;;;1838726;76;27001;-37
2021/12/07 12:07:14;;;;;;;1.00;1.00;;;;;;;;;;1855389;77;26255;-36
2021/12/07 12:09:47;;;;;;;1.10;1.10;;;;;;;;;;1863063;76;26238;-37
2021/12/07 12:12:15;;;;;;;1.60;1.10;;;;;;;;;;1853775;77;26249;-30
2021/12/07 12:15:01;;;;;;;1.72;1.00;;;;;;;;;;1855022;76;26284;-33
2021/12/07 12:17:30;;;;;;;1.10;1.10;;;;;;;;;;1855333;77;26288;-34
2021/12/07 12:20:08;;;;;;;2.95;1.20;;;;;;;;;;1857265;76;26682;-33
2021/12/07 12:22:40;;;;;;;5.05;1.47;;;;;;;;;;1855759;77;26400;-33
2021/12/07 12:25:08;;;;;;;1.00;1.00;;;;;;;;;;1773681;77;26316;-32
2021/12/07 12:27:36;;;;;;;1.00;1.00;;;;;;;;;;1849528;77;26331;-31
2021/12/07 12:30:08;;;;;;;1.75;1.00;;;;;;;;;;1851363;76;26348;-32
2021/12/07 12:32:36;;;;;;;1.10;1.05;;;;;;;;;;1851549;75;26315;-32
2021/12/07 12:35:05;;;;;;;1.10;1.10;;;;;;;;;;1853713;77;26290;-36
2021/12/07 12:37:33;;;;;;;1.00;1.00;;;;;;;;;;1849765;77;26557;-32
2021/12/07 12:40:11;;;;;;;1.00;1.00;;;;;;;;;;1833553;77;26368;-32
2021/12/07 12:42:40;;;;;;;1.30;1.30;;;;;;;;;;1841794;77;26256;-34
2021/12/07 12:45:22;;;;;;;2.00;1.20;;;;;;;;;;1836498;76;28239;-31
2021/12/07 12:48:01;;;;;;;1.20;1.20;;;;;;;;;;1844569;76;26277;-32
2021/12/07 12:50:30;;;;;;;1.10;1.10;;;;;;;;;;1840960;76;26698;-32
2021/12/07 12:53:05;;;;;;;1.07;1.07;;;;;;;;;;1855162;76;26285;-32
2021/12/07 12:55:46;;;;;;;1.00;1.00;;;;;;;;;;1854582;76;26286;-38
2021/12/07 12:58:15;;;;;;;1.20;1.20;;;;;;;;;;1841505;76;26290;-30
2021/12/07 13:00:59;;;;;;;1.20;1.20;;;;;;;;;;1829733;76;28257;-33
2021/12/07 13:03:28;;;;;;;1.20;1.20;;;;;;;;;;1841101;76;26746;-33
2021/12/07 13:06:03;;;;;;;1.20;1.20;;;;;;;;;;1844916;76;26650;-32
2021/12/07 13:08:28;;;;;;;1.10;1.10;;;;;;;;;;1836178;76;26361;-32
2021/12/07 13:11:00;;;;;;;2.50;1.40;;;;;;;;;;1822876;76;28862;-29
2021/12/07 13:13:28;;;;;;;1.47;1.42;;;;;;;;;;1830097;76;26297;-36
2021/12/07 13:15:56;;;;;;;1.30;1.30;;;;;;;;;;1831458;76;26742;-32
2021/12/07 13:18:28;;;;;;;1.25;1.25;;;;;;;;;;1834185;76;26255;-31
2021/12/07 13:20:54;;;;;;;1.40;1.30;;;;;;;;;;1835501;76;26328;-32
2021/12/07 13:23:25;;;;;;;1.20;1.20;;;;;;;;;;1837350;76;26651;-37
2021/12/07 13:25:53;;;;;;;1.10;1.10;;;;;;;;;;1832739;76;26408;-32
2021/12/07 13:28:22;;;;;;;1.20;1.20;;;;;;;;;;1836267;76;26320;-31
2021/12/07 13:30:53;;;;;;;1.65;1.10;;;;;;;;;;1840138;76;26313;-33
2021/12/07 13:33:22;;;;;;;2.05;1.30;;;;;;;;;;1841795;76;26328;-36
2021/12/07 13:35:51;;;;;;;1.10;1.10;;;;;;;;;;1841210;76;26263;-34
2021/12/07 13:38:20;;;;;;;1.37;1.37;;;;;;;;;;1831254;76;28352;-32
2021/12/07 13:40:48;;;;;;;1.30;1.30;;;;;;;;;;1834834;76;26309;-38
2021/12/07 13:43:32;;;;;;;1.20;1.20;;;;;;;;;;1842470;76;26264;-33
2021/12/07 13:46:12;;;;;;;1.30;1.30;;;;;;;;;;1833793;76;26646;-32
2021/12/07 13:48:41;;;;;;;1.20;1.20;;;;;;;;;;1835974;76;26282;-39
2021/12/07 13:51:09;;;;;;;1.30;1.20;;;;;;;;;;1836444;76;27157;-32
2021/12/07 13:53:37;;;;;;;1.22;1.22;;;;;;;;;;1843117;76;26346;-35
2021/12/07 13:56:06;;;;;;;1.20;1.20;;;;;;;;;;1833731;76;26341;-36
2021/12/07 13:58:49;;;;;;;1.20;1.20;;;;;;;;;;1843471;76;26779;-36
2021/12/07 14:01:17;;;;;;;1.20;1.20;;;;;;;;;;1847098;76;26312;-31
2021/12/07 14:03:45;;;;;;;1.72;1.37;;;;;;;;;;1841393;76;26386;-36
2021/12/07 14:06:12;;;;;;;1.25;1.10;;;;;;;;;;1835418;76;26383;-34
2021/12/07 14:08:40;;;;;;;1.30;1.30;;;;;;;;;;1834913;76;28097;-36
2021/12/07 14:11:07;;;;;;;1.30;1.30;;;;;;;;;;1833026;76;28645;-34
2021/12/07 14:13:36;;;;;;;1.25;1.25;;;;;;;;;;1851059;76;26271;-33
2021/12/07 14:16:04;;;;;;;1.02;1.02;;;;;;;;;;1842806;76;26272;-31
2021/12/07 14:18:35;;;;;;;1.10;1.10;;;;;;;;;;1848817;76;26390;-38
2021/12/07 14:21:01;;;;;;;1.20;1.20;;;;;;;;;;1855083;76;26344;-33
2021/12/07 14:23:31;;;;;;;1.95;1.10;;;;;;;;;;1857015;76;26276;-34
2021/12/07 14:26:06;;;;;;;1.70;1.30;;;;;;;;;;1837909;76;28705;-39
2021/12/07 14:28:41;;;;;;;1.30;1.30;;;;;;;;;;1828895;76;28693;-34
2021/12/07 14:31:19;;;;;;;1.40;1.40;;;;;;;;;;1846228;76;27358;-34
2021/12/07 14:33:51;;;;;;;1.20;1.20;;;;;;;;;;1846599;76;28395;-33
2021/12/07 14:36:31;;;;;;;1.20;1.20;;;;;;;;;;1853458;76;26266;-36
2021/12/07 14:39:00;;;;;;;1.30;1.30;;;;;;;;;;1845002;76;26276;-34
2021/12/07 14:41:29;;;;;;;1.20;1.20;;;;;;;;;;1852260;76;26830;-33
2021/12/07 14:43:57;;;;;;;1.20;1.20;;;;;;;;;;1859687;76;26853;-39
2021/12/07 14:46:25;;;;;;;1.10;1.10;;;;;;;;;;1860044;76;26400;-40
2021/12/07 14:48:53;;;;;;;1.20;1.20;;;;;;;;;;1848097;76;26809;-38
2021/12/07 14:51:22;;;;;;;1.30;1.30;;;;;;;;;;1854491;76;26351;-31
2021/12/07 14:53:51;;;;;;;1.15;1.15;;;;;;;;;;1855282;76;26398;-33
2021/12/07 14:56:19;;;;;;;1.20;1.20;;;;;;;;;;1852709;76;26309;-36
2021/12/07 14:58:48;;;;;;;1.30;1.30;;;;;;;;;;1851509;76;26282;-36
2021/12/07 15:01:17;;;;;;;1.30;1.30;;;;;;;;;;1846124;76;26292;-34
2021/12/07 15:03:46;;;;;;;1.30;1.30;;;;;;;;;;1853104;76;26290;-32
2021/12/07 15:06:14;;;;;;;1.20;1.20;;;;;;;;;;1865329;76;27104;-32
2021/12/07 15:08:42;;;;;;;1.27;1.27;;;;;;;;;;1871156;76;26984;-34
2021/12/07 15:11:10;;;;;;;1.10;1.10;;;;;;;;;;1878929;76;26288;-33
2021/12/07 15:13:38;;;;;;;1.95;1.20;;;;;;;;;;1873383;76;26319;-32
2021/12/07 15:16:07;;;;;;;1.22;1.22;;;;;;;;;;1857721;76;26273;-38
2021/12/07 15:18:40;;;;;;;1.30;1.30;;;;;;;;;;1860354;76;26861;-34
2021/12/07 15:21:05;;;;;;;1.20;1.20;;;;;;;;;;1878376;76;26268;-33
2021/12/07 15:23:33;;;;;;;1.60;1.60;;;;;;;;;;1852912;76;28822;-32
2021/12/07 15:26:00;;;;;;;1.20;1.20;;;;;;;;;;1866611;76;26333;-36
2021/12/07 15:28:27;;;;;;;1.42;1.42;;;;;;;;;;1857338;76;26316;-35
2021/12/07 15:30:55;;;;;;;1.40;1.40;;;;;;;;;;1860453;76;26272;-30
2021/12/07 15:33:23;;;;;;;1.52;1.42;;;;;;;;;;1859150;76;26297;-29
2021/12/07 15:35:50;;;;;;;1.40;1.40;;;;;;;;;;1850053;76;26839;-30
2021/12/07 15:38:19;;;;;;;1.40;1.40;;;;;;;;;;1858459;76;26298;-31
2021/12/07 15:40:46;;;;;;;1.27;1.27;;;;;;;;;;1853229;76;26300;-29
2021/12/07 15:43:15;;;;;;;1.40;1.40;;;;;;;;;;1862579;76;26614;-29
2021/12/07 15:45:44;;;;;;;1.15;1.15;;;;;;;;;;1860632;76;26663;-31
2021/12/07 15:48:11;;;;;;;1.37;1.37;;;;;;;;;;1860602;76;26957;-29
2021/12/07 15:50:39;;;;;;;1.30;1.30;;;;;;;;;;1867410;76;26262;-31
2021/12/07 15:53:10;;;;;;;1.40;1.40;;;;;;;;;;1849969;76;26635;-31
2021/12/07 15:55:39;;;;;;;1.40;1.40;;;;;;;;;;1853979;76;26777;-30
2021/12/07 15:58:11;;;;;;;1.22;1.22;;;;;;;;;;1861090;76;26618;-31
2021/12/07 16:00:45;;;;;;;1.52;1.52;;;;;;;;;;1852329;76;26835;-30
2021/12/07 16:03:16;;;;;;;1.67;1.60;;;;;;;;;;1861426;76;26285;-30
2021/12/07 16:05:45;;;;;;;1.60;1.50;;;;;;;;;;1868558;76;25360;-30
2021/12/07 16:08:14;;;;;;;1.42;1.42;;;;;;;;;;1871918;76;26308;-29
2021/12/07 16:10:43;;;;;;;1.50;1.50;;;;;;;;;;1847478;76;26267;-30
2021/12/07 16:13:17;;;;;;;1.45;1.45;;;;;;;;;;1841016;76;27346;-30
2021/12/07 16:15:42;;;;;;;1.47;1.47;;;;;;;;;;1844607;76;26418;-30
2021/12/07 16:18:10;;;;;;;1.72;1.62;;;;;;;;;;1843188;76;26344;-30
2021/12/07 16:20:37;;;;;;;1.72;1.70;;;;;;;;;;1847434;76;26798;-30
2021/12/07 16:23:06;;;;;;;2.00;1.90;;;;;;;;;;1851268;76;26341;-30
2021/12/07 16:25:34;;;;;;;1.70;1.67;;;;;;;;;;1846503;76;26354;-30
2021/12/07 16:28:01;;;;;;;1.60;1.60;;;;;;;;;;1846390;76;26280;-30
2021/12/07 16:30:28;;;;;;;2.27;1.72;;;;;;;;;;1852294;76;26314;-31
2021/12/07 16:32:56;;;;;;;2.02;1.72;;;;;;;;;;1857246;76;26328;-31
2021/12/07 16:35:24;;;;;;;3.30;2.30;;;;;;;;;;1833924;76;25967;-31
2021/12/07 16:37:52;;;;;;;1.92;1.82;;;;;;;;;;1841077;76;26353;-32
2021/12/07 16:40:20;;;;;;;1.70;1.60;;;;;;;;;;1844489;77;26674;-30